Time;durP1;ratioP1;P1;durP2;ratioP2;P2;SDS_P1;SDS_P2;PMS_P1;PMS_P2;Temp;Humidity;BMP_temperature;BMP_pressure;BME280_temperature;BME280_humidity;BME280_pressure;Samples;Min_cycle;Max_cycle;Signal;HPM_P1;HPM_P2
2023/01/23 00:01:24;;;;;;;;;;;;;;;;;;5014238;28;1401;-41
2023/01/23 00:03:56;;;;;;;;;;;;;;;;;;5014160;28;1921;-42
2023/01/23 00:06:24;;;;;;;;;;;;;;;;;;5014365;28;1783;-40
2023/01/23 00:08:55;;;;;;;;;;;;;;;;;;5014232;28;1852;-42
2023/01/23 00:11:26;;;;;;;;;;;;;;;;;;5014213;28;1437;-42
2023/01/23 00:13:53;;;;;;;;;;;;;;;;;;5013853;28;1559;-40
2023/01/23 00:16:21;;;;;;;;;;;;;;;;;;5014154;28;2061;-40
2023/01/23 00:18:49;;;;;;;;;;;;;;;;;;5013858;28;1948;-40
2023/01/23 00:21:18;;;;;;;;;;;;;;;;;;5014091;28;1904;-42
2023/01/23 00:23:49;;;;;;;;;;;;;;;;;;5014133;28;1651;-43
2023/01/23 00:26:19;;;;;;;;;;;;;;;;;;5013418;28;1712;-43
2023/01/23 00:28:47;;;;;;;;;;;;;;;;;;4994444;28;1863;-41
2023/01/23 00:31:16;;;;;;;;;;;;;;;;;;4994365;28;1966;-43
2023/01/23 00:33:43;;;;;;;;;;;;;;;;;;5026351;28;1759;-46
2023/01/23 00:36:11;;;;;;;;;;;;;;;;;;5033445;28;1606;-41
2023/01/23 00:38:39;;;;;;;;;;;;;;;;;;5015532;28;1936;-43
2023/01/23 00:41:06;;;;;;;;;;;;;;;;;;5033369;28;1910;-41
2023/01/23 00:43:33;;;;;;;;;;;;;;;;;;5033259;28;1920;-45
2023/01/23 00:46:01;;;;;;;;;;;;;;;;;;5033327;28;1824;-41
2023/01/23 00:48:28;;;;;;;;;;;;;;;;;;5015475;28;1676;-42
2023/01/23 00:50:55;;;;;;;;;;;;;;;;;;5015339;28;1881;-42
2023/01/23 00:53:23;;;;;;;;;;;;;;;;;;5033084;28;2183;-42
2023/01/23 00:55:50;;;;;;;;;;;;;;;;;;5033112;28;1597;-41
2023/01/23 00:58:17;;;;;;;;;;;;;;;;;;5033389;28;2101;-42
2023/01/23 01:00:44;;;;;;;;;;;;;;;;;;5033243;28;1914;-43
2023/01/23 01:03:12;;;;;;;;;;;;;;;;;;5032957;28;1975;-40
2023/01/23 01:05:40;;;;;;;;;;;;;;;;;;5015136;28;1830;-43
2023/01/23 01:08:07;;;;;;;;;;;;;;;;;;5032752;28;2035;-43
2023/01/23 01:10:35;;;;;;;;;;;;;;;;;;5015230;28;1821;-40
2023/01/23 01:13:03;;;;;;;;;;;;;;;;;;5032958;28;2008;-41
2023/01/23 01:15:31;;;;;;;;;;;;;;;;;;5032793;28;2049;-43
2023/01/23 01:17:58;;;;;;;;;;;;;;;;;;5032825;28;1931;-44
2023/01/23 01:20:26;;;;;;;;;;;;;;;;;;5014418;28;1973;-41
2023/01/23 01:22:55;;;;;;;;;;;;;;;;;;5032682;28;1849;-40
2023/01/23 01:25:22;;;;;;;;;;;;;;;;;;5032545;28;1771;-46
2023/01/23 01:27:52;;;;;;;;;;;;;;;;;;5045899;28;1729;-42
2023/01/23 01:30:20;;;;;;;;;;;;;;;;;;5052768;28;1723;-42
2023/01/23 01:32:47;;;;;;;;;;;;;;;;;;5052439;28;1753;-41
2023/01/23 01:35:14;;;;;;;;;;;;;;;;;;5051265;28;2002;-41
2023/01/23 01:37:41;;;;;;;;;;;;;;;;;;5052516;28;1951;-43
2023/01/23 01:40:12;;;;;;;;;;;;;;;;;;5051654;28;1982;-41
2023/01/23 01:42:41;;;;;;;;;;;;;;;;;;5051006;28;1471;-43
2023/01/23 01:45:29;;;;;;;;;;;;;;;;;;5052346;28;1809;-42
2023/01/23 01:47:56;;;;;;;;;;;;;;;;;;5052271;28;1402;-40
2023/01/23 01:50:23;;;;;;;;;;;;;;;;;;5052112;28;2121;-38
2023/01/23 01:52:51;;;;;;;;;;;;;;;;;;5052208;28;1963;-40
2023/01/23 01:55:19;;;;;;;;;;;;;;;;;;5050646;28;1506;-43
2023/01/23 01:57:48;;;;;;;;;;;;;;;;;;5050724;28;2512;-40
2023/01/23 02:00:16;;;;;;;;;;;;;;;;;;5050628;28;1915;-40
2023/01/23 02:02:48;;;;;;;;;;;;;;;;;;5050463;28;1445;-40
2023/01/23 02:05:20;;;;;;;;;;;;;;;;;;5051720;28;1752;-43
2023/01/23 02:07:53;;;;;;;;;;;;;;;;;;5050347;28;2120;-39
2023/01/23 02:10:21;;;;;;;;;;;;;;;;;;5050543;28;1882;-42
2023/01/23 02:12:51;;;;;;;;;;;;;;;;;;5051581;28;2213;-42
2023/01/23 02:15:20;;;;;;;;;;;;;;;;;;5051682;28;2000;-41
2023/01/23 02:17:49;;;;;;;;;;;;;;;;;;5050113;28;1869;-40
2023/01/23 02:20:16;;;;;;;;;;;;;;;;;;5051626;28;1910;-42
2023/01/23 02:22:52;;;;;;;;;;;;;;;;;;5051491;28;1892;-40
2023/01/23 02:25:39;;;;;;;;;;;;;;;;;;5050246;28;1852;-42
2023/01/23 02:28:06;;;;;;;;;;;;;;;;;;5051182;28;2020;-44
2023/01/23 02:30:38;;;;;;;;;;;;;;;;;;5033093;28;1539;-45
2023/01/23 02:33:11;;;;;;;;;;;;;;;;;;5032969;28;1834;-43
2023/01/23 02:35:38;;;;;;;;;;;;;;;;;;5051224;28;1626;-46
2023/01/23 02:38:09;;;;;;;;;;;;;;;;;;5033313;28;1510;-42
2023/01/23 02:40:37;;;;;;;;;;;;;;;;;;5033206;28;1930;-42
2023/01/23 02:43:12;;;;;;;;;;;;;;;;;;5033103;28;2410;-43
2023/01/23 02:45:46;;;;;;;;;;;;;;;;;;5033443;28;1686;-46
2023/01/23 02:48:14;;;;;;;;;;;;;;;;;;5033073;28;2003;-42
2023/01/23 02:50:43;;;;;;;;;;;;;;;;;;5049936;28;1989;-42
2023/01/23 02:53:11;;;;;;;;;;;;;;;;;;5050961;28;1601;-42
2023/01/23 02:55:42;;;;;;;;;;;;;;;;;;5050857;28;1924;-41
2023/01/23 03:00:56;;;;;;;;;;;;;;;;;;5033171;28;1961;-43
2023/01/23 03:03:23;;;;;;;;;;;;;;;;;;5033322;28;2134;-41
2023/01/23 03:05:54;;;;;;;;;;;;;;;;;;5051128;28;1555;-41
2023/01/23 03:08:21;;;;;;;;;;;;;;;;;;5050699;28;1728;-42
2023/01/23 03:10:49;;;;;;;;;;;;;;;;;;5032852;28;1948;-41
2023/01/23 03:13:16;;;;;;;;;;;;;;;;;;5032867;28;1648;-40
2023/01/23 03:15:43;;;;;;;;;;;;;;;;;;5050731;28;1536;-42
2023/01/23 03:18:10;;;;;;;;;;;;;;;;;;5032884;28;1875;-43
2023/01/23 03:20:39;;;;;;;;;;;;;;;;;;5050535;28;1904;-42
2023/01/23 03:23:06;;;;;;;;;;;;;;;;;;5050781;28;1545;-43
2023/01/23 03:25:33;;;;;;;;;;;;;;;;;;5032641;28;2217;-43
2023/01/23 03:28:01;;;;;;;;;;;;;;;;;;5018275;28;2133;-42
2023/01/23 03:30:29;;;;;;;;;;;;;;;;;;5030670;28;2148;-42
2023/01/23 03:32:56;;;;;;;;;;;;;;;;;;5030861;28;2150;-40
2023/01/23 03:35:24;;;;;;;;;;;;;;;;;;5030605;28;1377;-40
2023/01/23 03:37:53;;;;;;;;;;;;;;;;;;5012764;28;2176;-40
2023/01/23 03:43:12;;;;;;;;;;;;;;;;;;5027766;28;1582;-42
2023/01/23 03:45:44;;;;;;;;;;;;;;;;;;5029348;28;1259;-42
2023/01/23 03:48:12;;;;;;;;;;;;;;;;;;5027215;28;1956;-43
2023/01/23 03:50:39;;;;;;;;;;;;;;;;;;5012764;28;1526;-43
2023/01/23 03:53:08;;;;;;;;;;;;;;;;;;5012769;28;2446;-42
2023/01/23 03:55:36;;;;;;;;;;;;;;;;;;5034702;28;2073;-45
2023/01/23 03:58:03;;;;;;;;;;;;;;;;;;5050697;28;1973;-41
2023/01/23 04:00:32;;;;;;;;;;;;;;;;;;5032378;28;1910;-42
2023/01/23 04:03:04;;;;;;;;;;;;;;;;;;5034461;28;1806;-42
2023/01/23 04:05:31;;;;;;;;;;;;;;;;;;5054055;28;1492;-43
2023/01/23 04:08:00;;;;;;;;;;;;;;;;;;5036154;28;1644;-42
2023/01/23 04:10:28;;;;;;;;;;;;;;;;;;5054230;28;1609;-43
2023/01/23 04:13:02;;;;;;;;;;;;;;;;;;5036051;28;1984;-40
2023/01/23 04:15:33;;;;;;;;;;;;;;;;;;5027682;28;1528;-42
2023/01/23 04:18:04;;;;;;;;;;;;;;;;;;5016030;28;1785;-40
2023/01/23 04:20:32;;;;;;;;;;;;;;;;;;5016249;28;1945;-42
2023/01/23 04:23:02;;;;;;;;;;;;;;;;;;5016273;28;1449;-42
2023/01/23 04:25:29;;;;;;;;;;;;;;;;;;5036521;28;2087;-43
2023/01/23 04:27:56;;;;;;;;;;;;;;;;;;5046168;28;2278;-42
2023/01/23 04:30:23;;;;;;;;;;;;;;;;;;5053438;28;1503;-44
2023/01/23 04:32:51;;;;;;;;;;;;;;;;;;5052142;28;1392;-42
2023/01/23 04:35:18;;;;;;;;;;;;;;;;;;5052064;28;1280;-42
2023/01/23 04:37:46;;;;;;;;;;;;;;;;;;5053283;28;1604;-42
2023/01/23 04:40:14;;;;;;;;;;;;;;;;;;5053232;28;1981;-41
2023/01/23 04:42:54;;;;;;;;;;;;;;;;;;5051911;28;1649;-41
2023/01/23 04:45:30;;;;;;;;;;;;;;;;;;5053730;28;1381;-43
2023/01/23 04:48:15;;;;;;;;;;;;;;;;;;5053452;28;1710;-43
2023/01/23 04:50:43;;;;;;;;;;;;;;;;;;5051845;28;1838;-44
2023/01/23 04:53:10;;;;;;;;;;;;;;;;;;5053149;28;1977;-43
2023/01/23 04:55:38;;;;;;;;;;;;;;;;;;5043906;28;2312;-41
2023/01/23 04:58:10;;;;;;;;;;;;;;;;;;5035151;28;1903;-42
2023/01/23 05:00:37;;;;;;;;;;;;;;;;;;5035207;28;2016;-43
2023/01/23 05:03:05;;;;;;;;;;;;;;;;;;5035025;28;1605;-42
2023/01/23 05:05:33;;;;;;;;;;;;;;;;;;5034914;28;1490;-42
2023/01/23 05:08:00;;;;;;;;;;;;;;;;;;5031905;28;2189;-42
2023/01/23 05:10:28;;;;;;;;;;;;;;;;;;5015512;28;2026;-43
2023/01/23 05:13:02;;;;;;;;;;;;;;;;;;5015252;28;1331;-42
2023/01/23 05:15:29;;;;;;;;;;;;;;;;;;5030650;28;1824;-43
2023/01/23 05:17:56;;;;;;;;;;;;;;;;;;5014925;28;1748;-42
2023/01/23 05:20:24;;;;;;;;;;;;;;;;;;5031229;28;1984;-42
2023/01/23 05:22:53;;;;;;;;;;;;;;;;;;5014790;28;1705;-42
2023/01/23 05:25:28;;;;;;;;;;;;;;;;;;5014931;28;1263;-43
2023/01/23 05:27:58;;;;;;;;;;;;;;;;;;5056253;28;2060;-43
2023/01/23 05:30:26;;;;;;;;;;;;;;;;;;5051006;28;1583;-42
2023/01/23 05:33:05;;;;;;;;;;;;;;;;;;5051297;28;1736;-42
2023/01/23 05:35:32;;;;;;;;;;;;;;;;;;5051152;28;1703;-43
2023/01/23 05:38:00;;;;;;;;;;;;;;;;;;5052335;28;1383;-42
2023/01/23 05:40:28;;;;;;;;;;;;;;;;;;5052038;28;2052;-43
2023/01/23 05:43:13;;;;;;;;;;;;;;;;;;5052245;28;1888;-42
2023/01/23 05:45:53;;;;;;;;;;;;;;;;;;5052129;28;1754;-43
2023/01/23 05:48:27;;;;;;;;;;;;;;;;;;5052060;28;1892;-41
2023/01/23 05:50:55;;;;;;;;;;;;;;;;;;5050677;28;1503;-41
2023/01/23 05:53:22;;;;;;;;;;;;;;;;;;5050670;28;1264;-42
2023/01/23 05:55:50;;;;;;;;;;;;;;;;;;5052133;28;2218;-42
2023/01/23 05:58:18;;;;;;;;;;;;;;;;;;5050671;28;1912;-42
2023/01/23 06:01:06;;;;;;;;;;;;;;;;;;5037117;28;1902;-41
2023/01/23 06:03:56;;;;;;;;;;;;;;;;;;5051669;28;1576;-42
2023/01/23 06:06:39;;;;;;;;;;;;;;;;;;5041105;28;1251;-41
2023/01/23 06:09:09;;;;;;;;;;;;;;;;;;5051615;28;1873;-40
2023/01/23 06:11:37;;;;;;;;;;;;;;;;;;5033904;28;1535;-45
2023/01/23 06:14:06;;;;;;;;;;;;;;;;;;5033667;28;2111;-43
2023/01/23 06:16:34;;;;;;;;;;;;;;;;;;5051266;28;1791;-40
2023/01/23 06:19:02;;;;;;;;;;;;;;;;;;5017353;28;1862;-42
2023/01/23 06:21:33;;;;;;;;;;;;;;;;;;5033530;28;1979;-42
2023/01/23 06:24:02;;;;;;;;;;;;;;;;;;5016029;28;10396;-44
2023/01/23 06:26:29;;;;;;;;;;;;;;;;;;5033226;28;1901;-42
2023/01/23 06:28:57;;;;;;;;;;;;;;;;;;5051328;28;1719;-43
2023/01/23 06:31:24;;;;;;;;;;;;;;;;;;5051528;28;2098;-41
2023/01/23 06:33:55;;;;;;;;;;;;;;;;;;5049899;28;1692;-42
2023/01/23 06:36:28;;;;;;;;;;;;;;;;;;5049996;28;1616;-44
2023/01/23 06:38:55;;;;;;;;;;;;;;;;;;5051111;28;1690;-41
2023/01/23 06:41:29;;;;;;;;;;;;;;;;;;5033313;28;1986;-42
2023/01/23 06:44:01;;;;;;;;;;;;;;;;;;5051129;28;1815;-43
2023/01/23 06:46:28;;;;;;;;;;;;;;;;;;5050983;28;1479;-42
2023/01/23 06:48:55;;;;;;;;;;;;;;;;;;5033098;28;2327;-41
2023/01/23 06:51:23;;;;;;;;;;;;;;;;;;5051140;28;1251;-44
2023/01/23 06:53:50;;;;;;;;;;;;;;;;;;5033057;28;1721;-42
2023/01/23 06:56:17;;;;;;;;;;;;;;;;;;5050868;28;1335;-42
2023/01/23 06:58:47;;;;;;;;;;;;;;;;;;5032790;28;1556;-42
2023/01/23 07:01:25;;;;;;;;;;;;;;;;;;5050146;28;1911;-43
2023/01/23 07:04:02;;;;;;;;;;;;;;;;;;5050545;28;1279;-42
2023/01/23 07:06:30;;;;;;;;;;;;;;;;;;5032969;28;1834;-44
2023/01/23 07:08:57;;;;;;;;;;;;;;;;;;5032956;28;1417;-44
2023/01/23 07:11:24;;;;;;;;;;;;;;;;;;5065455;28;1533;-42
2023/01/23 07:13:55;;;;;;;;;;;;;;;;;;5050732;28;1280;-43
2023/01/23 07:16:24;;;;;;;;;;;;;;;;;;5032944;28;1450;-42
2023/01/23 07:18:57;;;;;;;;;;;;;;;;;;5032763;28;1475;-44
2023/01/23 07:21:24;;;;;;;;;;;;;;;;;;5032798;28;2034;-42
2023/01/23 07:23:51;;;;;;;;;;;;;;;;;;5050682;28;2315;-42
2023/01/23 07:26:19;;;;;;;;;;;;;;;;;;5050914;28;1749;-43
2023/01/23 07:28:46;;;;;;;;;;;;;;;;;;5050428;28;1897;-41
2023/01/23 07:31:15;;;;;;;;;;;;;;;;;;5050770;28;1683;-44
2023/01/23 07:33:43;;;;;;;;;;;;;;;;;;5050872;28;2024;-44
2023/01/23 07:36:12;;;;;;;;;;;;;;;;;;5050778;28;2080;-43
2023/01/23 07:38:40;;;;;;;;;;;;;;;;;;5054055;28;1963;-45
2023/01/23 07:41:09;;;;;;;;;;;;;;;;;;5054306;28;2027;-43
2023/01/23 07:43:37;;;;;;;;;;;;;;;;;;5054492;28;2122;-44
2023/01/23 07:46:04;;;;;;;;;;;;;;;;;;5054081;28;1869;-42
2023/01/23 07:48:31;;;;;;;;;;;;;;;;;;5054521;28;1852;-41
2023/01/23 07:51:00;;;;;;;;;;;;;;;;;;5054458;28;1265;-43
2023/01/23 07:53:28;;;;;;;;;;;;;;;;;;5054012;28;1984;-43
2023/01/23 07:55:55;;;;;;;;;;;;;;;;;;5054155;28;1892;-42
2023/01/23 07:58:22;;;;;;;;;;;;;;;;;;5053999;28;1870;-42
2023/01/23 08:00:49;;;;;;;;;;;;;;;;;;5054325;28;1577;-41
2023/01/23 08:03:17;;;;;;;;;;;;;;;;;;5053997;28;2352;-42
2023/01/23 08:05:47;;;;;;;;;;;;;;;;;;5054277;28;2069;-41
2023/01/23 08:08:14;;;;;;;;;;;;;;;;;;5054239;28;1834;-42
2023/01/23 08:10:42;;;;;;;;;;;;;;;;;;5053960;28;1803;-42
2023/01/23 08:13:10;;;;;;;;;;;;;;;;;;5053966;28;1996;-43
2023/01/23 08:15:37;;;;;;;;;;;;;;;;;;5053730;28;2165;-44
2023/01/23 08:18:04;;;;;;;;;;;;;;;;;;5053960;28;1662;-42
2023/01/23 08:20:32;;;;;;;;;;;;;;;;;;5053766;28;1664;-40
2023/01/23 08:23:00;;;;;;;;;;;;;;;;;;5036097;28;2411;-44
2023/01/23 08:25:28;;;;;;;;;;;;;;;;;;5053577;28;1769;-42
2023/01/23 08:27:55;;;;;;;;;;;;;;;;;;5039530;28;1785;-44
2023/01/23 08:30:22;;;;;;;;;;;;;;;;;;5033668;28;1203;-43
2023/01/23 08:32:50;;;;;;;;;;;;;;;;;;5033530;28;1385;-38
2023/01/23 08:35:17;;;;;;;;;;;;;;;;;;5033708;28;1941;-38
2023/01/23 08:37:44;;;;;;;;;;;;;;;;;;5033640;28;1993;-45
2023/01/23 08:40:11;;;;;;;;;;;;;;;;;;5033400;28;1982;-43
2023/01/23 08:42:38;;;;;;;;;;;;;;;;;;5033421;28;1910;-42
2023/01/23 08:45:06;;;;;;;;;;;;;;;;;;5033312;28;1618;-43
2023/01/23 08:47:36;;;;;;;;;;;;;;;;;;5033395;28;2082;-40
2023/01/23 08:50:04;;;;;;;;;;;;;;;;;;5032263;28;1956;-45
2023/01/23 08:52:33;;;;;;;;;;;;;;;;;;5033206;28;2052;-44
2023/01/23 08:55:00;;;;;;;;;;;;;;;;;;5032750;28;2207;-42
2023/01/23 08:57:28;;;;;;;;;;;;;;;;;;5032222;28;1677;-41
2023/01/23 08:59:55;;;;;;;;;;;;;;;;;;5033145;28;1731;-46
2023/01/23 09:02:22;;;;;;;;;;;;;;;;;;5032873;28;1914;-41
2023/01/23 09:04:50;;;;;;;;;;;;;;;;;;5033129;28;1973;-40
2023/01/23 09:07:17;;;;;;;;;;;;;;;;;;5015504;28;1903;-42
2023/01/23 09:09:44;;;;;;;;;;;;;;;;;;5033184;28;1589;-42
2023/01/23 09:12:12;;;;;;;;;;;;;;;;;;5032804;28;1533;-40
2023/01/23 09:14:40;;;;;;;;;;;;;;;;;;5032782;28;1403;-43
2023/01/23 09:17:07;;;;;;;;;;;;;;;;;;5032480;28;1702;-46
2023/01/23 09:19:34;;;;;;;;;;;;;;;;;;5031692;28;1383;-44
2023/01/23 09:22:01;;;;;;;;;;;;;;;;;;5032823;28;1979;-41
2023/01/23 09:24:29;;;;;;;;;;;;;;;;;;5032686;28;1766;-45
2023/01/23 09:26:56;;;;;;;;;;;;;;;;;;5038445;28;2216;-43
2023/01/23 09:29:23;;;;;;;;;;;;;;;;;;5058637;28;2096;-41
2023/01/23 09:31:53;;;;;;;;;;;;;;;;;;5072401;28;1727;-42
2023/01/23 09:34:21;;;;;;;;;;;;;;;;;;5072582;28;1526;-42
2023/01/23 09:36:48;;;;;;;;;;;;;;;;;;5072537;28;2146;-43
2023/01/23 09:39:15;;;;;;;;;;;;;;;;;;5072408;28;1884;-44
2023/01/23 09:41:43;;;;;;;;;;;;;;;;;;5071977;28;1912;-41
2023/01/23 09:44:13;;;;;;;;;;;;;;;;;;5071955;28;1439;-42
2023/01/23 09:46:44;;;;;;;;;;;;;;;;;;5072064;28;1838;-41
2023/01/23 09:49:18;;;;;;;;;;;;;;;;;;5071748;28;1887;-43
2023/01/23 09:51:45;;;;;;;;;;;;;;;;;;5071923;28;2202;-42
2023/01/23 09:54:12;;;;;;;;;;;;;;;;;;5071937;28;2241;-43
2023/01/23 09:56:42;;;;;;;;;;;;;;;;;;5071991;28;1509;-42
2023/01/23 09:59:09;;;;;;;;;;;;;;;;;;5071359;28;1811;-44
2023/01/23 10:01:36;;;;;;;;;;;;;;;;;;5071290;28;1971;-45
2023/01/23 10:04:04;;;;;;;;;;;;;;;;;;5071928;28;1727;-43
2023/01/23 10:06:43;;;;;;;;;;;;;;;;;;5053844;28;1365;-41
2023/01/23 10:09:13;;;;;;;;;;;;;;;;;;5071477;28;2088;-42
2023/01/23 10:11:54;;;;;;;;;;;;;;;;;;5071300;28;1666;-44
2023/01/23 10:14:38;;;;;;;;;;;;;;;;;;5071511;28;1821;-44
2023/01/23 10:17:08;;;;;;;;;;;;;;;;;;5071498;28;1550;-42
2023/01/23 10:19:58;;;;;;;;;;;;;;;;;;5071265;28;1618;-42
2023/01/23 10:22:26;;;;;;;;;;;;;;;;;;5071196;28;1953;-43
2023/01/23 10:24:54;;;;;;;;;;;;;;;;;;5071546;28;1628;-43
2023/01/23 10:27:23;;;;;;;;;;;;;;;;;;5062294;28;1897;-41
2023/01/23 10:29:58;;;;;;;;;;;;;;;;;;5051015;28;1273;-42
2023/01/23 10:32:27;;;;;;;;;;;;;;;;;;5050992;28;1444;-40
2023/01/23 10:35:24;;;;;;;;;;;;;;;;;;5051027;28;2030;-45
2023/01/23 10:38:04;;;;;;;;;;;;;;;;;;5051053;28;995;-42
2023/01/23 10:43:20;;;;;;;;;;;;;;;;;;5050977;28;1967;-44
2023/01/23 10:45:49;;;;;;;;;;;;;;;;;;5050995;28;1845;-43
2023/01/23 10:48:31;;;;;;;;;;;;;;;;;;5050908;28;1992;-42
2023/01/23 10:50:59;;;;;;;;;;;;;;;;;;5050799;28;1668;-46
2023/01/23 10:53:26;;;;;;;;;;;;;;;;;;5050777;28;1586;-43
2023/01/23 10:55:56;;;;;;;;;;;;;;;;;;5051153;28;1877;-44
2023/01/23 10:58:36;;;;;;;;;;;;;;;;;;5050728;28;1754;-42
2023/01/23 11:01:03;;;;;;;;;;;;;;;;;;5050838;28;1721;-42
2023/01/23 11:03:34;;;;;;;;;;;;;;;;;;5049956;28;2283;-45
2023/01/23 11:06:01;;;;;;;;;;;;;;;;;;5049974;28;1575;-43
2023/01/23 11:08:28;;;;;;;;;;;;;;;;;;5050108;28;1615;-42
2023/01/23 11:11:14;;;;;;;;;;;;;;;;;;5050792;28;1730;-45
2023/01/23 11:13:42;;;;;;;;;;;;;;;;;;5054291;28;1812;-45
2023/01/23 11:16:17;;;;;;;;;;;;;;;;;;5054715;28;2048;-43
2023/01/23 11:19:03;;;;;;;;;;;;;;;;;;5054524;28;1467;-42
2023/01/23 11:21:49;;;;;;;;;;;;;;;;;;5054683;28;1450;-45
2023/01/23 11:24:18;;;;;;;;;;;;;;;;;;5054645;28;1910;-42
2023/01/23 11:27:00;;;;;;;;;;;;;;;;;;5054784;28;1687;-42
2023/01/23 11:29:29;;;;;;;;;;;;;;;;;;5054656;28;1784;-43
2023/01/23 11:32:04;;;;;;;;;;;;;;;;;;5054689;28;1690;-44
2023/01/23 11:34:40;;;;;;;;;;;;;;;;;;5054532;28;1908;-44
2023/01/23 11:37:25;;;;;;;;;;;;;;;;;;5054410;28;1479;-42
2023/01/23 11:40:01;;;;;;;;;;;;;;;;;;5054269;28;1620;-46
2023/01/23 11:42:29;;;;;;;;;;;;;;;;;;5036510;28;1960;-42
2023/01/23 11:44:59;;;;;;;;;;;;;;;;;;5036583;28;1694;-44
2023/01/23 11:47:45;;;;;;;;;;;;;;;;;;5054412;28;1998;-44
2023/01/23 11:50:33;;;;;;;;;;;;;;;;;;5054284;28;2100;-42
2023/01/23 11:53:13;;;;;;;;;;;;;;;;;;5054116;28;1878;-42
2023/01/23 11:55:41;;;;;;;;;;;;;;;;;;5054325;28;1737;-42
2023/01/23 11:58:26;;;;;;;;;;;;;;;;;;5053831;28;1770;-40
2023/01/23 12:01:04;;;;;;;;;;;;;;;;;;5053923;28;1725;-41
2023/01/23 12:03:34;;;;;;;;;;;;;;;;;;5053886;28;2233;-41
2023/01/23 12:06:10;;;;;;;;;;;;;;;;;;5053784;28;1538;-41
2023/01/23 12:08:59;;;;;;;;;;;;;;;;;;5053758;28;1719;-42
2023/01/23 12:11:32;;;;;;;;;;;;;;;;;;5054132;28;1808;-44
2023/01/23 12:14:11;;;;;;;;;;;;;;;;;;5054053;28;1694;-43
2023/01/23 12:16:46;;;;;;;;;;;;;;;;;;5054185;28;1968;-42
2023/01/23 12:19:16;;;;;;;;;;;;;;;;;;5053735;28;1259;-42
2023/01/23 12:21:53;;;;;;;;;;;;;;;;;;5053609;28;1741;-41
2023/01/23 12:24:32;;;;;;;;;;;;;;;;;;5052971;28;1948;-42
2023/01/23 12:27:03;;;;;;;;;;;;;;;;;;5047416;28;2077;-39
2023/01/23 12:29:36;;;;;;;;;;;;;;;;;;5033643;28;1787;-42
2023/01/23 12:32:07;;;;;;;;;;;;;;;;;;5033382;28;1690;-41
2023/01/23 12:35:00;;;;;;;;;;;;;;;;;;5033597;28;1558;-42
2023/01/23 12:37:34;;;;;;;;;;;;;;;;;;5033229;28;1840;-44
2023/01/23 12:40:10;;;;;;;;;;;;;;;;;;5015955;28;2235;-45
2023/01/23 12:42:56;;;;;;;;;;;;;;;;;;5033181;28;1995;-44
2023/01/23 12:45:26;;;;;;;;;;;;;;;;;;5033295;28;1713;-42
2023/01/23 12:48:11;;;;;;;;;;;;;;;;;;5033101;28;1660;-42
2023/01/23 12:50:45;;;;;;;;;;;;;;;;;;5032808;28;1390;-40
2023/01/23 12:53:18;;;;;;;;;;;;;;;;;;5033128;28;1249;-42
2023/01/23 12:55:52;;;;;;;;;;;;;;;;;;5032910;28;1841;-43
2023/01/23 12:58:19;;;;;;;;;;;;;;;;;;5032896;28;1284;-42
2023/01/23 13:00:46;;;;;;;;;;;;;;;;;;5032960;28;2000;-42
2023/01/23 13:03:16;;;;;;;;;;;;;;;;;;5032851;28;2058;-42
2023/01/23 13:05:57;;;;;;;;;;;;;;;;;;5032659;28;1656;-41
2023/01/23 13:08:33;;;;;;;;;;;;;;;;;;5032955;28;1907;-44
2023/01/23 13:13:57;;;;;;;;;;;;;;;;;;5032790;28;1866;-47
2023/01/23 13:16:32;;;;;;;;;;;;;;;;;;5032661;28;1639;-42
2023/01/23 13:22:15;;;;;;;;;;;;;;;;;;5052416;28;1397;-42
2023/01/23 13:25:12;;;;;;;;;;;;;;;;;;5028918;28;1748;-42
2023/01/23 13:27:50;;;;;;;;;;;;;;;;;;5051745;28;2218;-46
2023/01/23 13:30:20;;;;;;;;;;;;;;;;;;5052284;28;1936;-41
2023/01/23 13:32:49;;;;;;;;;;;;;;;;;;5052152;28;2247;-41
2023/01/23 13:35:51;;;;;;;;;;;;;;;;;;5051299;28;1629;-42
2023/01/23 13:38:21;;;;;;;;;;;;;;;;;;5010631;28;1446;-41
2023/01/23 13:41:03;;;;;;;;;;;;;;;;;;5051797;28;1483;-43
2023/01/23 13:43:49;;;;;;;;;;;;;;;;;;5051949;28;1915;-41
2023/01/23 13:46:19;;;;;;;;;;;;;;;;;;5051783;28;2067;-41
2023/01/23 13:58:15;;;;;;;;;;;;;;;;;;4820803;29;1438;-39
2023/01/23 14:07:41;;;;;;;;;;;;;;;;;;4731163;30;2191;-42
2023/01/23 14:10:27;;;;;;;;;;;;;;;;;;4730674;30;1982;-43
2023/01/23 14:13:15;;;;;;;;;;;;;;;;;;4730708;30;2253;-42
2023/01/23 14:16:08;;;;;;;;;;;;;;;;;;4748185;29;1775;-46
2023/01/23 14:18:58;;;;;;;;;;;;;;;;;;4759645;29;1876;-42
2023/01/23 14:21:45;;;;;;;;;;;;;;;;;;4809384;29;1303;-43
2023/01/23 14:24:19;;;;;;;;;;;;;;;;;;4875802;29;1923;-42
2023/01/23 14:26:48;;;;;;;;;;;;;;;;;;4875385;29;1892;-43
2023/01/23 14:29:19;;;;;;;;;;;;;;;;;;4890230;29;1309;-42
2023/01/23 14:31:46;;;;;;;;;;;;;;;;;;4912771;29;2103;-42
2023/01/23 14:34:15;;;;;;;;;;;;;;;;;;4931947;29;1905;-44
2023/01/23 14:36:48;;;;;;;;;;;;;;;;;;4931852;29;1951;-44
2023/01/23 14:39:18;;;;;;;;;;;;;;;;;;4931977;29;1831;-43
2023/01/23 14:41:45;;;;;;;;;;;;;;;;;;4932052;29;2223;-42
2023/01/23 14:44:33;;;;;;;;;;;;;;;;;;4984880;28;1988;-43
2023/01/23 14:47:02;;;;;;;;;;;;;;;;;;4989403;28;1791;-42
2023/01/23 14:49:33;;;;;;;;;;;;;;;;;;4989774;28;2055;-44
2023/01/23 14:52:02;;;;;;;;;;;;;;;;;;4989723;28;1503;-42
2023/01/23 14:54:30;;;;;;;;;;;;;;;;;;4989714;28;1559;-44
2023/01/23 14:57:03;;;;;;;;;;;;;;;;;;4989446;28;1331;-41
2023/01/23 14:59:36;;;;;;;;;;;;;;;;;;5033355;28;1949;-46
2023/01/23 15:02:24;;;;;;;;;;;;;;;;;;5051100;28;1700;-44
2023/01/23 15:05:10;;;;;;;;;;;;;;;;;;5050907;28;1910;-44
2023/01/23 15:07:48;;;;;;;;;;;;;;;;;;5050905;28;1748;-41
2023/01/23 15:10:17;;;;;;;;;;;;;;;;;;5050834;28;1796;-44
2023/01/23 15:13:03;;;;;;;;;;;;;;;;;;5050833;28;1422;-42
2023/01/23 15:15:32;;;;;;;;;;;;;;;;;;5050799;28;1467;-43
2023/01/23 15:18:00;;;;;;;;;;;;;;;;;;5033008;28;1478;-42
2023/01/23 15:20:27;;;;;;;;;;;;;;;;;;5050847;28;2278;-43
2023/01/23 15:22:55;;;;;;;;;;;;;;;;;;5050788;28;1912;-42
2023/01/23 15:25:26;;;;;;;;;;;;;;;;;;5050903;28;1243;-42
2023/01/23 15:27:53;;;;;;;;;;;;;;;;;;5037255;28;1959;-44
2023/01/23 15:30:49;;;;;;;;;;;;;;;;;;5030456;28;1419;-43
2023/01/23 15:33:23;;;;;;;;;;;;;;;;;;5014251;28;1778;-42
2023/01/23 15:35:51;;;;;;;;;;;;;;;;;;5012957;28;2430;-42
2023/01/23 15:38:18;;;;;;;;;;;;;;;;;;5030669;28;1099;-41
2023/01/23 15:40:45;;;;;;;;;;;;;;;;;;5030603;28;1709;-42
2023/01/23 15:43:14;;;;;;;;;;;;;;;;;;5030351;28;1973;-42
2023/01/23 15:45:41;;;;;;;;;;;;;;;;;;5031244;28;2232;-43
2023/01/23 15:48:08;;;;;;;;;;;;;;;;;;5030687;28;1919;-42
2023/01/23 15:50:39;;;;;;;;;;;;;;;;;;5030615;28;1746;-42
2023/01/23 15:53:10;;;;;;;;;;;;;;;;;;5030477;28;1967;-43
2023/01/23 15:55:38;;;;;;;;;;;;;;;;;;5029374;28;1391;-41
2023/01/23 15:58:05;;;;;;;;;;;;;;;;;;5031138;28;1449;-47
2023/01/23 16:00:32;;;;;;;;;;;;;;;;;;5034224;28;1444;-42
2023/01/23 16:02:59;;;;;;;;;;;;;;;;;;5034339;28;1910;-42
2023/01/23 16:05:31;;;;;;;;;;;;;;;;;;5034102;28;1709;-42
2023/01/23 16:08:03;;;;;;;;;;;;;;;;;;5034065;28;1230;-42
2023/01/23 16:10:39;;;;;;;;;;;;;;;;;;5034115;28;2151;-43
2023/01/23 16:13:14;;;;;;;;;;;;;;;;;;5034125;28;1881;-42
2023/01/23 16:15:41;;;;;;;;;;;;;;;;;;5034285;28;1978;-45
2023/01/23 16:18:08;;;;;;;;;;;;;;;;;;5034067;28;1850;-43
2023/01/23 16:20:37;;;;;;;;;;;;;;;;;;5033994;28;2113;-42
2023/01/23 16:23:09;;;;;;;;;;;;;;;;;;5034020;28;2084;-44
2023/01/23 16:25:43;;;;;;;;;;;;;;;;;;5034364;28;1916;-42
2023/01/23 16:28:16;;;;;;;;;;;;;;;;;;5050092;28;2087;-43
2023/01/23 16:30:43;;;;;;;;;;;;;;;;;;5053773;28;2043;-45
2023/01/23 16:33:11;;;;;;;;;;;;;;;;;;5053643;28;2086;-43
2023/01/23 16:35:38;;;;;;;;;;;;;;;;;;5053768;28;1961;-41
2023/01/23 16:38:05;;;;;;;;;;;;;;;;;;5053543;28;2339;-44
2023/01/23 16:40:33;;;;;;;;;;;;;;;;;;5053739;28;2257;-41
2023/01/23 16:43:01;;;;;;;;;;;;;;;;;;5053463;28;1755;-42
2023/01/23 16:45:30;;;;;;;;;;;;;;;;;;5053388;28;2190;-42
2023/01/23 16:47:57;;;;;;;;;;;;;;;;;;5053537;28;1999;-43
2023/01/23 16:50:31;;;;;;;;;;;;;;;;;;5052037;28;2372;-42
2023/01/23 16:53:01;;;;;;;;;;;;;;;;;;5053311;28;1716;-42
2023/01/23 16:55:33;;;;;;;;;;;;;;;;;;5053281;28;1876;-42
2023/01/23 16:58:01;;;;;;;;;;;;;;;;;;5053127;28;1576;-42
2023/01/23 17:00:28;;;;;;;;;;;;;;;;;;5051773;28;1640;-44
2023/01/23 17:03:02;;;;;;;;;;;;;;;;;;5043898;28;1582;-41
2023/01/23 17:05:29;;;;;;;;;;;;;;;;;;5052857;28;1969;-39
2023/01/23 17:07:56;;;;;;;;;;;;;;;;;;5053004;28;1593;-45
2023/01/23 17:10:24;;;;;;;;;;;;;;;;;;5051994;28;1397;-41
2023/01/23 17:12:58;;;;;;;;;;;;;;;;;;5052835;28;2002;-42
2023/01/23 17:15:26;;;;;;;;;;;;;;;;;;5052986;28;1652;-44
2023/01/23 17:17:54;;;;;;;;;;;;;;;;;;5035112;28;1896;-41
2023/01/23 17:20:22;;;;;;;;;;;;;;;;;;5052993;28;1796;-42
2023/01/23 17:22:49;;;;;;;;;;;;;;;;;;5052870;28;1803;-42
2023/01/23 17:25:20;;;;;;;;;;;;;;;;;;5052797;28;1976;-45
2023/01/23 17:27:48;;;;;;;;;;;;;;;;;;5052809;28;1548;-44
2023/01/23 17:30:35;;;;;;;;;;;;;;;;;;5052745;28;2091;-42
2023/01/23 17:33:03;;;;;;;;;;;;;;;;;;5052419;28;1668;-43
2023/01/23 17:35:35;;;;;;;;;;;;;;;;;;5052394;28;1470;-44
2023/01/23 17:38:02;;;;;;;;;;;;;;;;;;5051244;28;975;-42
2023/01/23 17:40:29;;;;;;;;;;;;;;;;;;5052526;28;1296;-44
2023/01/23 17:42:57;;;;;;;;;;;;;;;;;;5052398;28;2036;-43
2023/01/23 17:45:25;;;;;;;;;;;;;;;;;;5051589;28;1914;-40
2023/01/23 17:47:54;;;;;;;;;;;;;;;;;;5051819;28;1762;-41
2023/01/23 17:50:22;;;;;;;;;;;;;;;;;;5052365;28;2015;-44
2023/01/23 17:52:51;;;;;;;;;;;;;;;;;;5052378;28;2073;-42
2023/01/23 17:55:19;;;;;;;;;;;;;;;;;;5052285;28;2103;-44
2023/01/23 17:57:46;;;;;;;;;;;;;;;;;;5052215;28;1562;-44
2023/01/23 18:00:17;;;;;;;;;;;;;;;;;;5051924;28;1288;-42